Center Hill Observed Data For Previous 48 Hours

Caption
Day and Hour Reservoir Elevation (behind dam)* Tailwater Elevation (below dam)* Average Hourly Discharge*
3/22/2019 1 AM CDT 653.64 490.14 16,463
3/22/2019 2 AM CDT 653.59 490.19 16,463
3/22/2019 3 AM CDT 653.54 490.14 16,463
3/22/2019 4 AM CDT 653.49 490.19 16,463
3/22/2019 5 AM CDT 653.44 490.14 16,463
3/22/2019 6 AM CDT 653.39 490.19 16,477
3/22/2019 7 AM CDT 653.34 490.14 16,125
3/22/2019 8 AM CDT 653.28 490.08 16,057
3/22/2019 9 AM CDT 653.23 490.13 15,914
3/22/2019 10 AM CDT 653.17 489.97 15,839
3/22/2019 11 AM CDT 653.12 489.92 15,771
3/22/2019 12 PM CDT 653.07 489.37 15,558
3/22/2019 1 PM CDT 653.02 488.82 12,564
3/22/2019 2 PM CDT 652.97 488.57 12,615
3/22/2019 3 PM CDT 652.92 488.52 12,550
3/22/2019 4 PM CDT 652.86 488.46 12,615
3/22/2019 5 PM CDT 652.85 488.45 12,615
3/22/2019 6 PM CDT 652.80 488.40 12,550
3/22/2019 7 PM CDT 652.75 488.35 12,615
3/22/2019 8 PM CDT 652.71 488.31 12,550
3/22/2019 9 PM CDT 652.69 488.29 12,615
3/22/2019 10 PM CDT 652.62 488.32 12,615
3/22/2019 11 PM CDT 652.60 488.30 12,550
3/23/2019 12 AM CDT 652.56 488.26 12,615
3/23/2019 1 AM CDT 652.51 488.21 12,615
3/23/2019 2 AM CDT 652.46 488.16 12,550
3/23/2019 3 AM CDT 652.39 488.19 12,630
3/23/2019 4 AM CDT 652.36 488.16 12,630
3/23/2019 5 AM CDT 652.30 488.20 12,630
3/23/2019 6 AM CDT 652.24 488.14 12,630
3/23/2019 7 AM CDT 652.23 488.23 12,564
3/23/2019 8 AM CDT 652.19 488.19 12,564
3/23/2019 9 AM CDT 652.12 488.12 12,564
3/23/2019 10 AM CDT 652.09 488.09 12,564
3/23/2019 11 AM CDT 652.06 488.16 12,564
3/23/2019 12 PM CDT 652.01 488.21 12,564
3/23/2019 1 PM CDT 651.96 488.16 12,630
3/23/2019 2 PM CDT 651.93 488.13 12,630
3/23/2019 3 PM CDT 651.86 488.16 12,578
3/23/2019 4 PM CDT 651.84 488.14 12,578
3/23/2019 5 PM CDT 651.80 488.10 12,645
3/23/2019 6 PM CDT 651.75 488.15 12,578
3/23/2019 7 PM CDT 651.70 488.20 12,553
3/23/2019 8 PM CDT 651.68 488.18 12,553
3/23/2019 9 PM CDT 651.63 488.23 12,553
3/23/2019 10 PM CDT 651.59 488.19 12,553
3/23/2019 11 PM CDT 651.55 488.25 12,553
3/24/2019 12 AM CDT 651.51 488.21 12,553

Elevations are in feet above sea level. Discharges are in cubic feet per second and are reported at the end of the hour.